Time;durP1;ratioP1;P1;durP2;ratioP2;P2;SDS_P1;SDS_P2;PMS_P1;PMS_P2;Temp;Humidity;BMP_temperature;BMP_pressure;BME280_temperature;BME280_humidity;BME280_pressure;Samples;Min_cycle;Max_cycle;Signal;HPM_P1;HPM_P2
2023/04/04 00:01:39;;;;;;;7.85;2.70;;;2.70;99.90;;;;;;5036163;28;20112;-80
2023/04/04 00:04:05;;;;;;;9.93;3.15;;;2.50;99.90;;;;;;5032469;28;20044;-80
2023/04/04 00:06:31;;;;;;;8.75;3.20;;;1.80;99.90;;;;;;5057100;28;20371;-80
2023/04/04 00:08:56;;;;;;;9.07;3.15;;;1.80;99.90;;;;;;5051257;28;20036;-80
2023/04/04 00:11:22;;;;;;;11.68;3.58;;;1.70;99.90;;;;;;5034648;28;20109;-80
2023/04/04 00:13:48;;;;;;;8.57;3.50;;;1.70;99.90;;;;;;5049877;28;20036;-80
2023/04/04 00:16:14;;;;;;;9.23;3.33;;;1.60;99.90;;;;;;5065754;28;20040;-80
2023/04/04 00:18:39;;;;;;;9.70;3.70;;;1.60;99.90;;;;;;5050729;28;20045;-80
2023/04/04 00:21:05;;;;;;;9.75;3.40;;;1.70;99.90;;;;;;5067645;28;20076;-80
2023/04/04 00:23:31;;;;;;;9.65;3.50;;;1.50;99.90;;;;;;5067908;28;20044;-80
2023/04/04 00:25:57;;;;;;;8.93;3.25;;;1.50;99.90;;;;;;5051263;28;20032;-80
2023/04/04 00:28:23;;;;;;;9.00;3.15;;;1.50;99.90;;;;;;5051339;28;20528;-80
2023/04/04 00:30:48;;;;;;;11.07;3.58;;;1.50;99.90;;;;;;5026406;28;20055;-80
2023/04/04 00:33:14;;;;;;;11.88;3.45;;;1.50;99.90;;;;;;5051190;28;20047;-80
2023/04/04 00:35:40;;;;;;;8.88;3.30;;;2.60;99.90;;;;;;5031821;28;20376;-80
2023/04/04 00:38:06;;;;;;;9.63;3.45;;;1.80;99.90;;;;;;5034617;28;20032;-80
2023/04/04 00:40:52;;;;;;;10.40;3.53;;;1.40;99.90;;;;;;5032239;28;20041;-80
2023/04/04 00:43:18;;;;;;;9.38;3.35;;;1.40;99.90;;;;;;5038806;28;20044;-80
2023/04/04 00:45:45;;;;;;;10.27;3.50;;;3.20;99.90;;;;;;5050123;28;20110;-80
2023/04/04 00:48:11;;;;;;;11.73;3.75;;;1.90;99.90;;;;;;5016381;28;20040;-80
2023/04/04 00:50:36;;;;;;;10.23;3.55;;;1.30;99.90;;;;;;5048818;28;20073;-80
2023/04/04 00:53:02;;;;;;;10.10;3.67;;;1.30;99.90;;;;;;5047955;28;20120;-80
2023/04/04 00:55:28;;;;;;;9.70;4.18;;;1.70;99.90;;;;;;5033900;28;20036;-80
2023/04/04 00:57:54;;;;;;;10.98;4.22;;;1.40;99.90;;;;;;5034336;28;20041;-80
2023/04/04 01:00:20;;;;;;;9.80;3.63;;;1.20;99.90;;;;;;5019945;28;20049;-80
2023/04/04 01:02:46;;;;;;;10.43;3.92;;;1.20;99.90;;;;;;5034952;28;20044;-80
2023/04/04 01:05:12;;;;;;;10.18;3.80;;;2.20;99.90;;;;;;5037827;28;20041;-80
2023/04/04 01:07:38;;;;;;;11.27;3.60;;;1.20;99.90;;;;;;5033392;28;20032;-80
2023/04/04 01:10:05;;;;;;;10.85;3.70;;;1.40;99.90;;;;;;5037462;28;20059;-80
2023/04/04 01:12:31;;;;;;;8.68;3.60;;;1.20;99.90;;;;;;5022314;28;20036;-80
2023/04/04 01:14:57;;;;;;;9.70;3.95;;;1.10;99.90;;;;;;5053756;28;20048;-80
2023/04/04 01:17:23;;;;;;;12.00;3.85;;;1.10;99.90;;;;;;5058515;28;20051;-80
2023/04/04 01:20:01;;;;;;;11.27;3.78;;;1.60;99.90;;;;;;5043990;28;20408;-80
2023/04/04 01:22:28;;;;;;;9.95;4.07;;;1.00;99.90;;;;;;5053357;28;20041;-80
2023/04/04 01:24:55;;;;;;;10.13;3.92;;;1.00;99.90;;;;;;5053666;28;20040;-80
2023/04/04 01:27:21;;;;;;;10.52;4.00;;;1.00;99.90;;;;;;5027177;28;20131;-80
2023/04/04 01:29:48;;;;;;;10.50;4.10;;;1.70;99.90;;;;;;5035651;28;20128;-80
2023/04/04 01:32:27;;;;;;;11.68;3.80;;;0.90;99.90;;;;;;5053070;28;20052;-80
2023/04/04 01:35:00;;;;;;;9.68;3.88;;;0.90;99.90;;;;;;5053600;28;20067;-80
2023/04/04 01:37:37;;;;;;;11.18;4.47;;;0.80;99.90;;;;;;5053323;28;20083;-80
2023/04/04 01:40:23;;;;;;;11.40;3.97;;;0.80;99.90;;;;;;5024583;28;20517;-80
2023/04/04 01:42:51;;;;;;;9.65;3.80;;;0.80;99.90;;;;;;5054340;28;20068;-80
2023/04/04 01:45:17;;;;;;;14.60;4.22;;;0.80;99.90;;;;;;5035705;28;20083;-80
2023/04/04 01:47:43;;;;;;;9.35;3.97;;;0.80;99.90;;;;;;5036988;28;20047;-80
2023/04/04 01:50:10;;;;;;;10.82;4.00;;;0.70;99.90;;;;;;5052390;28;20119;-80
2023/04/04 01:52:37;;;;;;;9.68;3.80;;;0.70;99.90;;;;;;5049703;28;20416;-80
2023/04/04 01:55:03;;;;;;;10.10;3.78;;;0.80;99.90;;;;;;5037081;28;20068;-80
2023/04/04 01:57:29;;;;;;;10.18;3.95;;;0.70;99.90;;;;;;5033092;28;20044;-80
2023/04/04 01:59:55;;;;;;;9.95;4.13;;;0.70;99.90;;;;;;5046815;28;20106;-80
2023/04/04 02:02:21;;;;;;;11.52;4.28;;;0.70;99.90;;;;;;5050738;28;20028;-80
2023/04/04 02:04:47;;;;;;;11.13;3.92;;;0.60;99.90;;;;;;5040752;28;20048;-80
2023/04/04 02:07:13;;;;;;;9.57;3.72;;;0.60;99.90;;;;;;5042894;28;20523;-80
2023/04/04 02:09:40;;;;;;;9.73;3.70;;;0.60;99.90;;;;;;5028960;28;20036;-80
2023/04/04 02:12:06;;;;;;;12.20;3.95;;;0.60;99.90;;;;;;5052322;28;20067;-80
2023/04/04 02:14:32;;;;;;;10.00;3.92;;;0.60;99.90;;;;;;5053368;28;20047;-80
2023/04/04 02:16:58;;;;;;;10.48;4.50;;;0.60;99.90;;;;;;5053179;28;20037;-80
2023/04/04 02:19:24;;;;;;;11.43;4.30;;;0.50;99.90;;;;;;5036241;28;20508;-80
2023/04/04 02:21:50;;;;;;;11.05;4.65;;;0.50;99.90;;;;;;5035325;28;20037;-80
2023/04/04 02:24:16;;;;;;;11.10;3.90;;;0.50;99.90;;;;;;5053254;28;20413;-80
2023/04/04 02:26:42;;;;;;;10.02;3.95;;;2.10;99.90;;;;;;5036195;28;20037;-80
2023/04/04 02:29:07;;;;;;;11.68;3.83;;;0.70;99.90;;;;;;5036581;28;20048;-80
2023/04/04 02:31:33;;;;;;;10.70;3.97;;;0.40;99.90;;;;;;5036107;28;20155;-80
2023/04/04 02:33:59;;;;;;;10.55;3.92;;;0.50;99.90;;;;;;5052108;28;20037;-80
2023/04/04 02:36:25;;;;;;;9.90;3.65;;;0.40;99.90;;;;;;5052881;28;20051;-80
2023/04/04 02:38:51;;;;;;;9.60;3.42;;;2.00;99.90;;;;;;5033643;28;20044;-80
2023/04/04 02:41:16;;;;;;;10.65;3.90;;;0.70;99.90;;;;;;5016026;28;20391;-80
2023/04/04 02:43:42;;;;;;;9.20;3.63;;;0.40;99.90;;;;;;5016499;28;20037;-80
2023/04/04 02:46:08;;;;;;;13.65;3.92;;;0.40;99.90;;;;;;5024517;28;20106;-80
2023/04/04 02:48:35;;;;;;;12.02;4.03;;;0.40;99.90;;;;;;5034185;28;20044;-80
2023/04/04 02:51:01;;;;;;;9.38;3.20;;;0.40;99.90;;;;;;5035770;28;20043;-80
2023/04/04 02:53:27;;;;;;;9.05;3.42;;;1.00;99.90;;;;;;5067215;28;20044;-80
2023/04/04 02:55:53;;;;;;;9.77;3.60;;;0.40;99.90;;;;;;5035938;28;20048;-80
2023/04/04 02:58:19;;;;;;;9.57;3.20;;;0.40;99.90;;;;;;5033702;28;20517;-80
2023/04/04 03:00:47;;;;;;;8.77;3.25;;;1.10;99.90;;;;;;5032437;28;20155;-80
2023/04/04 03:03:13;;;;;;;8.93;3.50;;;0.40;99.90;;;;;;5024348;28;20040;-80
2023/04/04 03:05:39;;;;;;;8.95;3.35;;;0.40;99.90;;;;;;5048778;28;20110;-80
2023/04/04 03:08:05;;;;;;;10.05;3.80;;;0.40;99.90;;;;;;5039002;28;20033;-80
2023/04/04 03:10:30;;;;;;;9.60;3.75;;;0.40;99.90;;;;;;5023035;28;20162;-80
2023/04/04 03:12:57;;;;;;;11.38;3.78;;;0.30;99.90;;;;;;5036954;28;20055;-80
2023/04/04 03:15:23;;;;;;;10.95;3.50;;;0.30;99.90;;;;;;5018338;28;20056;-80
2023/04/04 03:17:48;;;;;;;10.70;3.25;;;0.30;99.90;;;;;;5054486;28;20514;-80
2023/04/04 03:20:15;;;;;;;7.93;2.78;;;0.30;99.90;;;;;;5049917;28;20040;-80
2023/04/04 03:22:41;;;;;;;9.55;3.60;;;0.30;99.90;;;;;;5051403;28;20108;-80
2023/04/04 03:25:07;;;;;;;11.27;3.67;;;0.20;99.90;;;;;;5019894;28;20540;-80
2023/04/04 03:27:33;;;;;;;9.70;3.50;;;0.20;99.90;;;;;;5047427;28;20113;-80
2023/04/04 03:29:59;;;;;;;11.57;4.32;;;0.20;99.90;;;;;;5032474;28;20127;-80
2023/04/04 03:32:26;;;;;;;9.70;3.17;;;1.10;99.90;;;;;;5031745;28;20565;-80
2023/04/04 03:34:51;;;;;;;9.20;2.88;;;0.20;99.90;;;;;;5028919;28;20057;-80
2023/04/04 03:37:18;;;;;;;8.80;3.25;;;0.10;99.90;;;;;;5012202;28;20466;-80
2023/04/04 03:39:43;;;;;;;9.07;3.03;;;0.60;99.90;;;;;;5029363;28;20511;-80
2023/04/04 03:42:09;;;;;;;9.15;3.22;;;0.10;99.90;;;;;;5047459;28;20355;-80
2023/04/04 03:44:38;;;;;;;8.32;2.95;;;0.60;99.90;;;;;;5030577;28;20049;-80
2023/04/04 03:47:04;;;;;;;9.25;3.50;;;0.00;99.90;;;;;;5028202;28;20041;-80
2023/04/04 03:49:31;;;;;;;8.77;3.15;;;0.00;99.90;;;;;;5028353;28;20064;-80
2023/04/04 03:51:57;;;;;;;9.95;3.22;;;1.30;99.90;;;;;;5015984;28;20521;-80
2023/04/04 03:54:23;;;;;;;9.95;3.20;;;0.00;99.90;;;;;;5040672;28;20087;-80
2023/04/04 03:56:50;;;;;;;8.45;2.97;;;0.00;99.90;;;;;;5031446;28;20037;-80
2023/04/04 03:59:16;;;;;;;11.02;3.45;;;0.00;99.90;;;;;;5031490;28;20393;-80
2023/04/04 04:01:42;;;;;;;8.88;3.30;;;0.00;99.90;;;;;;5014993;28;20167;-80
2023/04/04 04:04:07;;;;;;;12.05;3.75;;;0.00;99.90;;;;;;5031448;28;20102;-79
2023/04/04 04:06:33;;;;;;;9.15;3.05;;;0.30;99.90;;;;;;5031187;28;20059;-79
2023/04/04 04:09:00;;;;;;;12.27;3.70;;;0.70;99.90;;;;;;5037733;28;20042;-79
2023/04/04 04:11:25;;;;;;;8.73;3.28;;;0.00;99.90;;;;;;5028157;28;20045;-79
2023/04/04 04:13:51;;;;;;;8.73;3.05;;;0.00;99.90;;;;;;5019489;28;20561;-79
2023/04/04 04:16:17;;;;;;;9.23;3.20;;;0.00;99.90;;;;;;5031087;28;20084;-79
2023/04/04 04:18:42;;;;;;;10.07;3.33;;;0.60;99.90;;;;;;5031356;28;20049;-79
2023/04/04 04:21:08;;;;;;;10.38;3.53;;;0.00;99.90;;;;;;5029918;28;20056;-79
2023/04/04 04:23:34;;;;;;;12.75;3.65;;;0.00;99.90;;;;;;5015541;28;20038;-79
2023/04/04 04:25:59;;;;;;;11.38;3.53;;;0.00;99.90;;;;;;5024626;28;20103;-79
2023/04/04 04:28:25;;;;;;;10.75;3.42;;;0.00;99.90;;;;;;5029602;28;20078;-79
2023/04/04 04:30:51;;;;;;;9.52;3.45;;;0.70;99.90;;;;;;5030265;28;20041;-79
2023/04/04 04:33:18;;;;;;;9.20;3.50;;;0.00;99.90;;;;;;5029123;28;20053;-79
2023/04/04 04:35:44;;;;;;;10.35;3.45;;;0.00;99.90;;;;;;5011841;28;20135;-79
2023/04/04 04:38:10;;;;;;;10.82;3.85;;;0.00;99.90;;;;;;5042211;28;20119;-79
2023/04/04 04:40:36;;;;;;;9.93;3.50;;;0.00;99.90;;;;;;5030178;28;20049;-80
2023/04/04 04:43:02;;;;;;;14.57;3.90;;;1.30;99.90;;;;;;5036019;28;20521;-79
2023/04/04 04:45:28;;;;;;;10.95;3.08;;;0.50;99.90;;;;;;5016336;28;20037;-79
2023/04/04 04:47:53;;;;;;;9.50;3.35;;;1.40;99.90;;;;;;5043260;28;20041;-79
2023/04/04 04:50:19;;;;;;;9.55;3.55;;;0.00;99.90;;;;;;5046174;28;20132;-79
2023/04/04 04:52:45;;;;;;;10.68;3.70;;;0.00;99.90;;;;;;5030034;28;20409;-79
2023/04/04 04:55:11;;;;;;;9.60;3.80;;;0.00;99.90;;;;;;5028858;28;20124;-79
2023/04/04 04:57:37;;;;;;;9.85;3.70;;;0.00;99.90;;;;;;5046141;28;20040;-79
2023/04/04 05:00:04;;;;;;;8.75;3.30;;;0.80;99.90;;;;;;5042045;28;20138;-78
2023/04/04 05:02:30;;;;;;;12.77;3.70;;;0.00;99.90;;;;;;5042949;28;20541;-78
2023/04/04 05:04:55;;;;;;;9.00;3.22;;;1.00;99.90;;;;;;5014562;28;20146;-78
2023/04/04 05:07:22;;;;;;;10.02;3.50;;;0.00;99.90;;;;;;5036041;28;20037;-78
2023/04/04 05:09:56;;;;;;;8.93;3.60;;;0.00;99.90;;;;;;5028865;28;20041;-78
2023/04/04 05:12:22;;;;;;;9.75;3.60;;;0.00;99.90;;;;;;5028628;28;20045;-78
2023/04/04 05:14:48;;;;;;;10.70;3.88;;;0.00;99.90;;;;;;5030101;28;20075;-79
2023/04/04 05:17:14;;;;;;;11.95;3.60;;;0.00;99.90;;;;;;5046746;28;20033;-77
2023/04/04 05:19:40;;;;;;;9.95;3.45;;;0.00;99.90;;;;;;5013545;28;20048;-76
2023/04/04 05:22:06;;;;;;;10.32;3.78;;;0.10;99.90;;;;;;5027435;28;20208;-79
2023/04/04 05:24:32;;;;;;;9.07;3.25;;;0.10;99.90;;;;;;5028996;28;20478;-76
2023/04/04 05:26:58;;;;;;;10.35;3.60;;;1.10;99.90;;;;;;5028985;28;20110;-78
2023/04/04 05:29:24;;;;;;;10.15;3.80;;;0.90;99.90;;;;;;5035866;28;20139;-78
2023/04/04 05:31:49;;;;;;;11.68;3.63;;;-1.00;99.90;;;;;;5039987;28;20045;-78
2023/04/04 05:34:15;;;;;;;10.95;3.80;;;0.30;99.90;;;;;;5030501;28;20037;-78
2023/04/04 05:36:41;;;;;;;11.15;4.28;;;1.00;99.90;;;;;;5015878;28;20041;-78
2023/04/04 05:39:07;;;;;;;10.18;3.70;;;0.40;99.90;;;;;;5026773;28;20076;-78
2023/04/04 05:41:32;;;;;;;9.63;3.67;;;0.80;99.90;;;;;;5013966;28;20037;-78
2023/04/04 05:43:58;;;;;;;10.40;3.80;;;1.80;99.90;;;;;;5030580;28;20037;-78
2023/04/04 05:46:24;;;;;;;10.60;3.83;;;0.40;99.90;;;;;;5030297;28;20569;-78
2023/04/04 05:48:50;;;;;;;8.90;3.40;;;1.10;99.90;;;;;;5029338;28;20064;-78
2023/04/04 05:51:17;;;;;;;11.32;4.00;;;0.50;99.90;;;;;;5013792;28;20120;-78
2023/04/04 05:53:44;;;;;;;10.32;3.90;;;0.60;99.90;;;;;;5030429;28;20070;-78
2023/04/04 05:56:10;;;;;;;10.65;4.15;;;0.50;99.90;;;;;;5030028;28;20120;-78
2023/04/04 05:58:36;;;;;;;12.38;3.92;;;0.50;99.90;;;;;;5036338;28;20381;-78
2023/04/04 06:01:07;;;;;;;9.00;3.55;;;0.60;99.90;;;;;;5053670;28;20519;-78
2023/04/04 06:03:34;;;;;;;10.57;3.85;;;0.60;99.90;;;;;;5054216;28;20494;-78
2023/04/04 06:06:03;;;;;;;10.43;3.78;;;1.90;99.90;;;;;;5053855;28;20040;-78
2023/04/04 06:08:30;;;;;;;10.32;3.80;;;0.70;99.90;;;;;;5036350;28;20159;-78
2023/04/04 06:10:55;;;;;;;9.48;3.80;;;0.70;99.90;;;;;;5037260;28;20049;-78
2023/04/04 06:13:21;;;;;;;8.77;3.40;;;0.80;99.90;;;;;;5061068;28;20402;-78
2023/04/04 06:15:47;;;;;;;10.13;3.90;;;0.90;99.90;;;;;;5016699;28;20498;-78
2023/04/04 06:18:12;;;;;;;9.80;4.00;;;1.60;99.90;;;;;;5017375;28;20041;-79
2023/04/04 06:20:38;;;;;;;10.48;3.47;;;1.10;99.90;;;;;;5033142;28;20041;-78
2023/04/04 06:23:04;;;;;;;10.45;3.80;;;1.20;99.90;;;;;;5053647;28;20045;-78
2023/04/04 06:25:31;;;;;;;10.32;3.88;;;1.30;99.90;;;;;;5036918;28;20342;-78
2023/04/04 06:27:58;;;;;;;9.25;3.80;;;2.60;99.90;;;;;;5036847;28;20060;-78
2023/04/04 06:30:24;;;;;;;9.63;3.80;;;2.10;99.90;;;;;;5036093;28;20048;-78
2023/04/04 06:32:49;;;;;;;12.40;4.00;;;1.60;99.90;;;;;;5038419;28;20544;-78
2023/04/04 06:35:15;;;;;;;10.88;3.75;;;1.70;99.90;;;;;;5033146;28;20037;-79
2023/04/04 06:37:41;;;;;;;9.95;3.72;;;1.80;99.90;;;;;;5016887;28;20041;-79
2023/04/04 06:40:07;;;;;;;10.25;3.90;;;2.90;99.90;;;;;;5026265;28;20451;-79
2023/04/04 06:42:33;;;;;;;9.88;3.90;;;1.90;99.90;;;;;;5034230;28;20115;-79
2023/04/04 06:44:59;;;;;;;11.05;3.95;;;2.00;99.90;;;;;;5041210;28;20140;-79
2023/04/04 06:47:27;;;;;;;10.50;3.70;;;2.40;99.90;;;;;;5016723;28;20525;-79
2023/04/04 06:49:53;;;;;;;10.98;3.70;;;2.20;99.90;;;;;;5033488;28;20061;-79
2023/04/04 06:52:19;;;;;;;8.63;3.35;;;4.00;99.90;;;;;;5031039;28;20075;-79
2023/04/04 06:54:45;;;;;;;10.52;3.78;;;2.50;99.90;;;;;;5045913;28;20040;-80
2023/04/04 06:57:10;;;;;;;10.48;3.30;;;3.40;99.90;;;;;;5022273;28;20047;-79
2023/04/04 06:59:36;;;;;;;9.93;3.22;;;2.70;99.90;;;;;;5036321;28;20112;-80
2023/04/04 07:02:02;;;;;;;12.30;3.70;;;3.80;99.90;;;;;;5033539;28;20035;-80
2023/04/04 07:04:28;;;;;;;10.30;3.63;;;2.90;99.90;;;;;;5025300;28;20043;-79
2023/04/04 07:06:54;;;;;;;10.63;3.30;;;3.60;99.90;;;;;;5034430;28;20047;-79
2023/04/04 07:09:19;;;;;;;12.60;3.58;;;3.30;99.90;;;;;;5020343;28;20036;-79
2023/04/04 07:11:45;;;;;;;9.05;3.35;;;3.40;99.90;;;;;;5029507;28;20051;-79
2023/04/04 07:14:11;;;;;;;9.90;3.22;;;3.30;99.90;;;;;;5036003;28;20489;-79
2023/04/04 07:16:36;;;;;;;9.32;2.83;;;3.40;99.90;;;;;;5019310;28;20044;-79
2023/04/04 07:19:03;;;;;;;9.52;3.00;;;3.60;99.90;;;;;;5032674;28;20570;-79
2023/04/04 07:21:29;;;;;;;9.82;2.97;;;3.70;99.90;;;;;;5024592;28;20104;-79
2023/04/04 07:23:56;;;;;;;8.90;2.75;;;4.50;99.90;;;;;;5033452;28;20576;-79
2023/04/04 07:26:22;;;;;;;10.00;3.20;;;4.40;99.90;;;;;;5035438;28;20045;-79
2023/04/04 07:28:47;;;;;;;9.60;2.72;;;4.00;99.90;;;;;;5017694;28;20114;-79
2023/04/04 07:31:13;;;;;;;10.82;2.85;;;4.40;99.90;;;;;;5015475;28;20593;-79
2023/04/04 07:33:39;;;;;;;8.90;2.47;;;4.30;99.90;;;;;;5023198;28;20051;-79
2023/04/04 07:36:05;;;;;;;8.90;2.58;;;4.40;99.90;;;;;;5034973;28;20040;-79
2023/04/04 07:38:31;;;;;;;11.07;2.70;;;4.50;99.90;;;;;;5049392;28;20517;-79
2023/04/04 07:40:56;;;;;;;7.80;2.40;;;4.60;99.90;;;;;;5031799;28;20033;-79
2023/04/04 07:43:22;;;;;;;9.63;2.80;;;5.40;99.90;;;;;;5032812;28;20075;-79
2023/04/04 07:45:48;;;;;;;10.27;2.65;;;4.80;99.90;;;;;;5018288;28;20490;-79
2023/04/04 07:48:14;;;;;;;11.63;3.13;;;4.80;99.90;;;;;;5037656;28;20032;-79
2023/04/04 07:50:40;;;;;;;8.45;2.80;;;4.90;99.90;;;;;;5031993;28;20072;-79
2023/04/04 07:53:06;;;;;;;9.70;3.13;;;4.90;99.90;;;;;;5015879;28;20064;-79
2023/04/04 07:55:31;;;;;;;9.32;3.20;;;5.00;99.90;;;;;;5013606;28;20091;-79
2023/04/04 07:57:57;;;;;;;9.60;3.10;;;5.30;99.90;;;;;;5031801;28;20072;-79
2023/04/04 08:00:25;;;;;;;9.90;2.90;;;5.60;99.90;;;;;;5016212;28;20123;-79
2023/04/04 08:02:55;;;;;;;10.40;3.03;;;5.30;99.90;;;;;;5015556;28;20511;-79
2023/04/04 08:05:21;;;;;;;8.63;3.00;;;5.40;99.90;;;;;;5048690;28;20517;-79
2023/04/04 08:07:46;;;;;;;10.80;3.28;;;5.50;99.90;;;;;;5051681;28;20081;-79
2023/04/04 08:10:12;;;;;;;9.23;3.10;;;5.70;99.90;;;;;;5051558;28;20040;-79
2023/04/04 08:12:38;;;;;;;9.55;2.88;;;5.60;99.90;;;;;;5051405;28;20279;-79
2023/04/04 08:15:04;;;;;;;10.77;2.80;;;5.70;99.90;;;;;;5033817;28;20094;-79
2023/04/04 08:17:30;;;;;;;7.93;2.45;;;7.20;99.90;;;;;;5034516;28;20083;-79
2023/04/04 08:19:56;;;;;;;7.88;2.40;;;6.10;99.90;;;;;;5034742;28;20076;-79
2023/04/04 08:22:22;;;;;;;8.10;2.67;;;6.00;99.90;;;;;;5031290;28;20036;-79
2023/04/04 08:24:48;;;;;;;7.90;2.80;;;6.00;99.90;;;;;;5015201;28;20510;-79
2023/04/04 08:27:16;;;;;;;7.43;2.35;;;6.10;99.90;;;;;;5043764;28;20128;-79
2023/04/04 08:29:44;;;;;;;9.80;2.65;;;6.10;99.90;;;;;;5017705;28;20032;-80
2023/04/04 08:32:09;;;;;;;8.98;2.42;;;6.10;99.90;;;;;;5017977;28;20495;-79
2023/04/04 08:34:36;;;;;;;9.18;2.50;;;6.40;99.90;;;;;;5027930;28;20037;-79
2023/04/04 08:37:02;;;;;;;10.02;2.65;;;6.30;99.90;;;;;;5034463;28;20557;-79
2023/04/04 08:39:27;;;;;;;9.73;2.58;;;6.30;99.90;;;;;;5050390;28;20127;-79
2023/04/04 08:42:04;;;;;;;8.10;2.15;;;6.50;99.90;;;;;;5044643;28;20355;-80
2023/04/04 08:44:31;;;;;;;7.85;2.28;;;6.50;99.90;;;;;;5040767;28;20045;-80
2023/04/04 08:47:06;;;;;;;9.65;2.45;;;6.50;99.90;;;;;;5050805;28;20139;-80
2023/04/04 08:49:36;;;;;;;8.88;2.40;;;6.60;99.90;;;;;;5050778;28;20494;-80
2023/04/04 08:52:05;;;;;;;8.93;2.63;;;6.70;99.90;;;;;;5042730;28;20045;-79
2023/04/04 08:54:34;;;;;;;10.15;2.50;;;6.80;99.90;;;;;;5032898;28;20049;-79
2023/04/04 08:57:01;;;;;;;9.27;2.60;;;6.90;99.90;;;;;;5053771;28;20514;-79
2023/04/04 08:59:27;;;;;;;10.68;2.78;;;6.30;99.90;;;;;;5051044;28;20549;-80
2023/04/04 09:02:04;;;;;;;8.18;2.55;;;7.00;99.90;;;;;;5033291;28;20032;-80
2023/04/04 09:04:30;;;;;;;9.15;2.60;;;7.00;99.90;;;;;;5050848;28;20421;-79
2023/04/04 09:06:58;;;;;;;9.07;2.50;;;7.10;99.90;;;;;;5031055;28;20087;-79
2023/04/04 09:09:24;;;;;;;7.70;2.30;;;7.10;99.90;;;;;;5030930;28;20076;-79
2023/04/04 09:11:51;;;;;;;7.60;2.40;;;7.20;99.90;;;;;;5022266;28;20064;-80
2023/04/04 09:14:20;;;;;;;8.35;2.13;;;7.20;99.90;;;;;;5022563;28;20062;-80
2023/04/04 09:16:45;;;;;;;6.22;2.00;;;7.30;99.90;;;;;;5030397;28;20045;-80
2023/04/04 09:19:11;;;;;;;8.52;2.10;;;7.20;99.90;;;;;;5030827;28;20052;-80
2023/04/04 09:21:38;;;;;;;6.32;1.90;;;7.30;99.90;;;;;;5033564;28;20040;-79
2023/04/04 09:24:04;;;;;;;7.50;2.38;;;7.30;99.90;;;;;;5050965;28;20405;-79
2023/04/04 09:26:50;;;;;;;7.57;2.40;;;7.40;99.90;;;;;;5020344;28;20060;-79
2023/04/04 09:29:20;;;;;;;7.40;2.10;;;7.40;99.90;;;;;;5021871;28;20045;-79
2023/04/04 09:31:48;;;;;;;7.60;2.30;;;7.50;99.90;;;;;;5033000;28;20044;-79
2023/04/04 09:34:17;;;;;;;7.32;2.25;;;7.50;99.90;;;;;;5031330;28;20044;-79
2023/04/04 09:36:44;;;;;;;8.95;2.20;;;7.60;99.90;;;;;;5035929;28;20130;-79
2023/04/04 09:39:11;;;;;;;7.20;2.38;;;7.70;99.90;;;;;;5034622;28;20041;-79
2023/04/04 09:41:40;;;;;;;10.07;2.60;;;7.80;99.90;;;;;;5034048;28;20147;-80
2023/04/04 09:44:06;;;;;;;9.20;2.53;;;7.80;99.90;;;;;;5034097;28;20040;-80
2023/04/04 09:46:34;;;;;;;7.70;2.30;;;7.70;99.90;;;;;;5036917;28;20032;-80
2023/04/04 09:49:00;;;;;;;7.40;2.33;;;7.80;99.90;;;;;;5034409;28;20037;-79
2023/04/04 09:51:37;;;;;;;8.93;2.28;;;7.90;99.90;;;;;;5034013;28;20048;-79
2023/04/04 09:54:08;;;;;;;9.80;2.40;;;7.90;99.90;;;;;;5043787;28;20044;-79
2023/04/04 09:56:34;;;;;;;8.40;2.30;;;8.10;99.90;;;;;;5036718;28;20047;-79
2023/04/04 09:59:03;;;;;;;9.10;2.50;;;8.10;99.90;;;;;;5043664;28;20048;-79
2023/04/04 10:01:28;;;;;;;8.55;2.28;;;8.10;99.90;;;;;;5017621;28;20458;-79
2023/04/04 10:03:56;;;;;;;7.63;2.28;;;8.20;99.90;;;;;;5037923;28;20064;-79
2023/04/04 10:06:22;;;;;;;8.48;2.60;;;8.20;99.90;;;;;;5036768;28;20045;-80
2023/04/04 10:08:49;;;;;;;14.75;2.63;;;8.20;99.90;;;;;;5034057;28;20033;-79
2023/04/04 10:11:29;;;;;;;6.70;2.10;;;8.20;99.90;;;;;;5033714;28;20044;-79
2023/04/04 10:13:56;;;;;;;7.68;2.22;;;8.20;99.90;;;;;;5033908;28;20068;-79
2023/04/04 10:16:24;;;;;;;8.25;2.40;;;8.10;99.90;;;;;;5036073;28;20536;-79
2023/04/04 10:18:51;;;;;;;7.68;2.10;;;8.20;99.90;;;;;;5043141;28;20047;-79
2023/04/04 10:21:17;;;;;;;7.63;2.40;;;8.30;99.90;;;;;;5033328;28;20119;-79
2023/04/04 10:23:47;;;;;;;9.38;2.50;;;8.30;99.90;;;;;;5017374;28;20130;-79
2023/04/04 10:26:13;;;;;;;7.68;2.30;;;8.30;99.90;;;;;;5045563;28;20474;-79
2023/04/04 10:28:40;;;;;;;8.05;2.10;;;8.70;99.90;;;;;;5026894;28;20143;-79
2023/04/04 10:31:23;;;;;;;9.10;2.40;;;8.40;99.90;;;;;;5033217;28;20045;-79
2023/04/04 10:34:08;;;;;;;9.02;2.10;;;8.50;99.90;;;;;;5047539;28;20063;-79
2023/04/04 10:36:43;;;;;;;7.57;2.10;;;8.50;99.90;;;;;;5053068;28;20490;-79
2023/04/04 10:39:26;;;;;;;7.28;2.05;;;8.50;99.90;;;;;;5053680;28;20395;-79
2023/04/04 10:41:54;;;;;;;6.97;2.17;;;8.50;99.90;;;;;;5052916;28;20041;-79
2023/04/04 10:44:34;;;;;;;6.93;2.15;;;8.50;99.90;;;;;;5049784;28;20075;-79
2023/04/04 10:47:17;;;;;;;7.97;2.42;;;8.40;99.90;;;;;;5033064;28;20064;-79
2023/04/04 10:49:46;;;;;;;7.10;2.27;;;8.50;99.90;;;;;;5033430;28;20068;-79
2023/04/04 10:52:15;;;;;;;7.50;2.00;;;8.50;99.90;;;;;;5032802;28;20272;-79
2023/04/04 10:54:42;;;;;;;6.05;2.10;;;8.60;99.90;;;;;;5046602;28;20167;-79
2023/04/04 10:57:09;;;;;;;10.38;2.15;;;8.80;99.90;;;;;;5052883;28;20413;-79
2023/04/04 11:00:00;;;;;;;8.43;2.20;;;8.90;99.90;;;;;;5052999;28;20048;-79
2023/04/04 11:02:57;;;;;;;7.60;2.38;;;8.80;99.90;;;;;;5046129;28;20089;-79
2023/04/04 11:05:40;;;;;;;8.88;2.15;;;8.80;99.90;;;;;;5051496;28;20529;-79
2023/04/04 11:08:09;;;;;;;;;;;8.90;99.90;;;;;;5053455;28;20036;-80
2023/04/04 11:10:37;;;;;;;7.88;2.40;;;8.90;99.90;;;;;;5052543;28;19916;-79
2023/04/04 11:13:11;;;;;;;8.90;2.35;;;8.90;99.90;;;;;;5052838;28;20102;-79
2023/04/04 11:16:03;;;;;;;8.85;2.60;;;9.00;99.90;;;;;;5051185;28;20098;-79
2023/04/04 11:18:41;;;;;;;8.23;2.47;;;9.00;99.90;;;;;;5043867;28;20411;-79
2023/04/04 11:21:26;;;;;;;10.60;2.85;;;9.10;99.90;;;;;;5015828;28;20514;-79
2023/04/04 11:24:01;;;;;;;6.20;2.22;;;9.20;99.90;;;;;;5032975;28;20041;-79
2023/04/04 11:26:26;;;;;;;8.13;2.40;;;9.50;99.90;;;;;;5029380;28;20056;-79
2023/04/04 11:28:56;;;;;;;7.40;2.40;;;9.50;99.90;;;;;;5048287;28;20076;-79
2023/04/04 11:31:32;;;;;;;8.05;2.50;;;9.50;99.90;;;;;;5032065;28;20055;-79
2023/04/04 11:34:01;;;;;;;8.60;2.55;;;9.50;99.90;;;;;;5012636;28;20102;-79
2023/04/04 11:36:36;;;;;;;6.80;2.10;;;9.70;99.90;;;;;;5030076;28;20084;-79
2023/04/04 11:39:23;;;;;;;7.78;2.50;;;9.70;99.90;;;;;;5035696;28;20096;-79
2023/04/04 11:42:07;;;;;;;8.85;2.47;;;9.80;99.90;;;;;;5028757;28;20041;-79
2023/04/04 11:44:40;;;;;;;8.88;2.85;;;10.00;99.90;;;;;;5046798;28;20085;-79
2023/04/04 11:47:05;;;;;;;7.85;2.40;;;9.90;99.90;;;;;;5047005;28;20067;-78
2023/04/04 11:49:42;;;;;;;8.45;2.58;;;9.90;99.90;;;;;;5032025;28;20076;-79
2023/04/04 11:52:13;;;;;;;8.18;2.58;;;9.90;99.90;;;;;;5036739;28;20046;-79
2023/04/04 11:54:40;;;;;;;7.05;2.45;;;10.10;99.90;;;;;;5028668;28;20045;-79
2023/04/04 11:57:07;;;;;;;7.88;2.20;;;10.20;99.90;;;;;;5038808;28;20037;-79
2023/04/04 11:59:33;;;;;;;8.18;2.67;;;10.20;99.90;;;;;;5048447;28;20059;-79
2023/04/04 12:02:01;;;;;;;8.38;2.30;;;10.30;99.50;;;;;;5015297;28;20052;-79
2023/04/04 12:04:27;;;;;;;9.68;2.60;;;10.20;98.90;;;;;;5048611;28;20068;-79
2023/04/04 12:06:55;;;;;;;7.68;2.47;;;10.00;98.30;;;;;;5031041;28;20502;-79
2023/04/04 12:09:24;;;;;;;8.07;2.20;;;10.00;98.40;;;;;;5030465;28;20495;-79
2023/04/04 12:11:50;;;;;;;9.18;2.50;;;10.10;98.20;;;;;;5028303;28;20099;-79
2023/04/04 12:14:20;;;;;;;7.57;2.60;;;10.10;98.10;;;;;;5028624;28;20356;-79
2023/04/04 12:16:53;;;;;;;6.95;2.28;;;10.30;98.30;;;;;;5028203;28;20434;-79
2023/04/04 12:19:21;;;;;;;7.80;2.58;;;10.50;98.30;;;;;;5039965;28;20056;-78
2023/04/04 12:21:48;;;;;;;7.10;2.30;;;10.60;98.10;;;;;;5017950;28;20681;-79
2023/04/04 12:24:14;;;;;;;8.70;2.55;;;10.70;97.70;;;;;;5008780;28;20037;-79
2023/04/04 12:26:45;;;;;;;8.02;2.50;;;10.50;97.30;;;;;;5028039;28;20037;-79
2023/04/04 12:29:13;;;;;;;7.05;2.42;;;10.30;97.00;;;;;;5010697;28;20053;-79
2023/04/04 12:31:40;;;;;;;7.28;2.38;;;10.30;97.10;;;;;;5027852;28;20049;-79
2023/04/04 12:34:07;;;;;;;8.20;2.60;;;10.20;97.10;;;;;;5027172;28;20033;-79
2023/04/04 12:36:37;;;;;;;8.23;2.42;;;10.10;97.00;;;;;;5027730;28;20057;-79
2023/04/04 12:39:12;;;;;;;9.27;2.47;;;10.10;96.50;;;;;;5043387;28;20084;-78
2023/04/04 12:42:02;;;;;;;6.88;2.33;;;10.10;96.30;;;;;;5044216;28;20403;-78
2023/04/04 12:44:33;;;;;;;9.57;2.63;;;10.30;96.10;;;;;;5027862;28;20042;-79
2023/04/04 12:47:04;;;;;;;10.27;2.85;;;10.40;96.50;;;;;;5028072;28;20045;-79
2023/04/04 12:49:46;;;;;;;7.78;2.60;;;10.50;96.80;;;;;;5043419;28;20447;-78
2023/04/04 12:52:19;;;;;;;8.65;2.70;;;10.40;95.90;;;;;;5026751;28;20050;-79
2023/04/04 12:54:46;;;;;;;8.65;2.78;;;10.40;96.10;;;;;;4992283;28;20128;-79
2023/04/04 12:57:18;;;;;;;8.95;3.17;;;10.50;96.30;;;;;;5005419;28;20129;-79